Terminal Aerodrome Forecast
Issued by NWS Boston, MA

Home | Current Version | Previous Version | Text Only | Print | Product List | Glossary Off
Versions: 1 2 3 4 5 6 7 8 9 10 11 12 13 14 15 16 17 18 19 20 21 22 23 24 25 26 27 28 29 30 31 32 33 34 35 36 37 38 39 40 41 42 43 44 45
000 FTUS41 KBOX 260905 AAA TAFBDL TAF AMD KBDL 260905Z 2609/2712 01008KT P6SM BKN110 FM261800 02007KT P6SM OVC015 FM262200 02010G19KT 2SM -SN OVC015 FM270000 02012G23KT 1/2SM SN BLSN OVC015 FM270600 01014G26KT 1/4SM +SN BLSN OVC010=

USA.gov is the U.S. government's official web portal to all federal, state and local government web resources and services.